CheckWX is a tool to help pilots better visualize weather data.  It is not intended as a substitute for an official pre-flight weather briefing.

22:16:49 UTC

KILN TAF
Wilmington Airpark
Wilmington, Ohio, USA
KILN 311740Z 3118/0118 03005KT P6SM SCT015 OVC035 TEMPO 3118/3121 BKN025 FM312100 01008KT P6SM OVC025 FM010500 36008KT P6SM OVC018 FM010900 35008KT P6SM OVC010 TEMPO 0110/0113 BKN009 FM011400 35009KT P6SM OVC020

Mar-31@
18:00 UTC

Mar-31 @ 18:00 UTC

Mar-31@
21:00 UTC

Mar-31 @ 21:00 UTC

TAF KILN 311740Z 3118/0118 03005KT P6SM SCT015 OVC035

Expired

Wind
  • 030° at 5 KTS
Cloud Levels
  • Scattered at 1,500' AGL
  • Overcast at 3,500' AGL

Mar-31@
18:00 UTC

Mar-31 @ 18:00 UTC

Mar-31@
21:00 UTC

Mar-31 @ 21:00 UTC

TEMPO 3118/3121 BKN025

Expired

Cloud Levels
  • Broken at 2,500' AGL

Mar-31@
21:00 UTC

Mar-31 @ 21:00 UTC

Apr-1@
05:00 UTC

Apr-1 @ 05:00 UTC

FM312100 01008KT P6SM OVC025

From

From Standard forecast or significant change

Wind
  • 010° at 8 KTS
Cloud Levels
  • Overcast at 2,500' AGL

Apr-1@
05:00 UTC

Apr-1 @ 05:00 UTC

Apr-1@
09:00 UTC

Apr-1 @ 09:00 UTC

FM010500 36008KT P6SM OVC018

From

From Standard forecast or significant change

Wind
  • 360° at 8 KTS
Cloud Levels
  • Overcast at 1,800' AGL

Apr-1@
09:00 UTC

Apr-1 @ 09:00 UTC

Apr-1@
14:00 UTC

Apr-1 @ 14:00 UTC

FM010900 35008KT P6SM OVC010

From

From Standard forecast or significant change

Wind
  • 350° at 8 KTS
Cloud Levels
  • Overcast at 1,000' AGL

Apr-1@
10:00 UTC

Apr-1 @ 10:00 UTC

Apr-1@
13:00 UTC

Apr-1 @ 13:00 UTC

TEMPO 0110/0113 BKN009

Temporary

Temporary Changes expected for less than half the time period

Cloud Levels
  • Broken at 900' AGL

Apr-1@
14:00 UTC

Apr-1 @ 14:00 UTC

Apr-1@
18:00 UTC

Apr-1 @ 18:00 UTC

FM011400 35009KT P6SM OVC020

From

From Standard forecast or significant change

Wind
  • 350° at 9 KTS
Cloud Levels
  • Overcast at 2,000' AGL